X  Stänga Metar väderdata för luftfart     LGRX Patras Araxos Agamemnon Airport
Temperatur
6°C Temperatur
3°C Daggpunkt
81% Fuktighet



Vind
0 KM/T
0 MPH
0 M/S
0 KTS



Lugn
N
Nuvarande omständigheter

Delvis molnigt Delvis molnigt
Tryck 1012.92 (hPa) - 29.91 (inHg)
Synlighet 6.2 (mil) - 10 (km)
Flygplats
Flygplatskod LGRX

Plats: Patras Araxos Agamemnon Airport
Distans: 108 (km)

Metar:
LGRX 290320Z 00000KT 9999 FEW020 06/03 Q1013

Tid: 29-11-2022 05:20 EET